createdAt,value
2019-03-19T00:00:37.882Z,99.90
2019-03-19T00:03:07.997Z,99.90
2019-03-19T00:05:38.193Z,99.90
2019-03-19T00:08:08.213Z,99.90
2019-03-19T00:10:37.705Z,99.90
2019-03-19T00:13:07.332Z,99.90
2019-03-19T00:15:37.517Z,99.90
2019-03-19T00:18:07.442Z,99.90
2019-03-19T00:20:37.368Z,99.90
2019-03-19T00:23:07.519Z,99.90
2019-03-19T00:25:37.214Z,99.90
2019-03-19T00:28:07.336Z,99.90
2019-03-19T00:30:37.338Z,99.90
2019-03-19T00:33:07.434Z,99.90
2019-03-19T00:35:37.354Z,99.90
2019-03-19T00:38:07.222Z,99.90
2019-03-19T00:40:37.166Z,99.90
2019-03-19T00:43:07.037Z,99.90
2019-03-19T00:45:36.821Z,99.90
2019-03-19T00:48:06.688Z,99.90
2019-03-19T00:50:36.122Z,99.90
2019-03-19T00:53:05.779Z,99.90
2019-03-19T00:55:40.744Z,99.90
2019-03-19T00:58:07.086Z,99.90
2019-03-19T01:00:37.109Z,99.90
2019-03-19T01:03:06.824Z,99.90
2019-03-19T01:05:36.712Z,99.90
2019-03-19T01:08:06.911Z,99.90
2019-03-19T01:10:36.936Z,99.90
2019-03-19T01:13:07.052Z,99.90
2019-03-19T01:15:36.924Z,99.90
2019-03-19T01:18:06.921Z,99.90
2019-03-19T01:20:36.976Z,99.90
2019-03-19T01:23:07.278Z,99.90
2019-03-19T01:25:37.046Z,99.90
2019-03-19T01:28:06.969Z,99.90
2019-03-19T01:30:36.922Z,99.90
2019-03-19T01:33:06.796Z,99.90
2019-03-19T01:35:36.555Z,99.90
2019-03-19T01:38:06.447Z,99.90
2019-03-19T01:40:36.513Z,99.90
2019-03-19T01:43:06.084Z,99.90
2019-03-19T01:45:35.936Z,99.90
2019-03-19T01:48:05.957Z,99.90
2019-03-19T01:50:35.594Z,99.90
2019-03-19T01:53:05.367Z,99.90
2019-03-19T01:55:35.286Z,99.90
2019-03-19T01:58:05.361Z,99.90
2019-03-19T02:00:34.996Z,99.90
2019-03-19T02:03:04.756Z,99.90
2019-03-19T02:05:34.942Z,99.90
2019-03-19T02:08:04.882Z,99.90
2019-03-19T02:10:34.642Z,99.90
2019-03-19T02:13:04.537Z,99.90
2019-03-19T02:15:34.636Z,99.90
2019-03-19T02:18:04.769Z,99.90
2019-03-19T02:20:34.779Z,99.90
2019-03-19T02:23:04.914Z,99.90
2019-03-19T02:25:35.151Z,99.90
2019-03-19T02:28:05.353Z,99.90
2019-03-19T02:30:35.196Z,99.90
2019-03-19T02:33:05.609Z,99.90
2019-03-19T02:35:35.482Z,99.90
2019-03-19T02:38:05.352Z,99.90
2019-03-19T02:40:35.115Z,99.90
2019-03-19T02:43:04.990Z,99.90
2019-03-19T02:45:35.139Z,99.90
2019-03-19T02:48:04.883Z,99.90
2019-03-19T02:50:35.102Z,99.90
2019-03-19T02:53:05.041Z,99.90
2019-03-19T02:55:35.129Z,99.90
2019-03-19T02:58:05.354Z,99.90
2019-03-19T03:00:35.593Z,99.90
2019-03-19T03:03:05.561Z,99.90
2019-03-19T03:05:35.636Z,99.90
2019-03-19T03:08:06.058Z,99.90
2019-03-19T03:10:36.435Z,99.90
2019-03-19T03:13:06.639Z,99.90
2019-03-19T03:15:36.885Z,99.90
2019-03-19T03:18:07.536Z,99.90
2019-03-19T03:20:37.254Z,99.90
2019-03-19T03:23:07.649Z,99.90
2019-03-19T03:25:38.984Z,99.90
2019-03-19T03:28:09.341Z,99.90
2019-03-19T03:30:39.447Z,99.90
2019-03-19T03:33:09.548Z,99.90
2019-03-19T03:35:39.493Z,99.90
2019-03-19T03:38:09.767Z,99.90
2019-03-19T03:40:40.031Z,99.90
2019-03-19T03:43:09.873Z,99.90
2019-03-19T03:45:40.028Z,99.90
2019-03-19T03:48:10.030Z,99.90
2019-03-19T03:50:40.053Z,99.90
2019-03-19T03:53:10.539Z,99.90
2019-03-19T03:55:40.388Z,99.90
2019-03-19T03:58:10.411Z,99.90
2019-03-19T04:00:40.510Z,99.90
2019-03-19T04:03:10.685Z,99.90
2019-03-19T04:05:40.790Z,99.90
2019-03-19T04:08:10.713Z,99.90
2019-03-19T04:10:40.749Z,99.90
2019-03-19T04:13:10.936Z,99.90
2019-03-19T04:15:40.996Z,99.90
2019-03-19T04:18:10.738Z,99.90
2019-03-19T04:20:40.397Z,99.90
2019-03-19T04:23:09.972Z,99.90
2019-03-19T04:25:39.548Z,99.90
2019-03-19T04:28:09.306Z,99.90
2019-03-19T04:30:38.953Z,99.90
2019-03-19T04:33:08.710Z,99.90
2019-03-19T04:35:38.424Z,99.90
2019-03-19T04:38:08.229Z,99.90
2019-03-19T04:40:38.248Z,99.90
2019-03-19T04:43:08.115Z,99.90
2019-03-19T04:45:37.553Z,99.90
2019-03-19T04:48:07.356Z,99.90
2019-03-19T04:50:36.964Z,99.90
2019-03-19T04:53:07.047Z,99.90
2019-03-19T04:55:36.379Z,99.90
2019-03-19T04:58:06.427Z,99.90
2019-03-19T05:00:35.897Z,99.90
2019-03-19T05:03:06.020Z,99.90
2019-03-19T05:05:35.718Z,99.90
2019-03-19T05:08:05.532Z,99.90
2019-03-19T05:10:35.594Z,99.90
2019-03-19T05:13:05.350Z,99.90
2019-03-19T05:15:35.581Z,99.90
2019-03-19T05:18:05.479Z,99.90
2019-03-19T05:20:35.110Z,99.90
2019-03-19T05:23:05.215Z,99.90
2019-03-19T05:25:34.866Z,99.90
2019-03-19T05:28:04.750Z,99.90
2019-03-19T05:30:34.508Z,99.90
2019-03-19T05:33:04.255Z,99.90
2019-03-19T05:35:34.173Z,99.90
2019-03-19T05:38:04.145Z,99.90
2019-03-19T05:40:34.023Z,99.90
2019-03-19T05:43:03.903Z,99.90
2019-03-19T05:45:33.313Z,99.90
2019-03-19T05:48:03.238Z,99.90
2019-03-19T05:50:33.028Z,99.90
2019-03-19T05:53:02.944Z,99.90
2019-03-19T05:55:32.641Z,99.90
2019-03-19T05:58:02.255Z,99.90
2019-03-19T06:00:33.301Z,99.90
2019-03-19T06:03:03.201Z,99.90
2019-03-19T06:05:33.188Z,99.90
2019-03-19T06:08:03.041Z,99.90
2019-03-19T06:10:33.914Z,99.90
2019-03-19T06:13:03.786Z,99.90
2019-03-19T06:15:33.307Z,99.90
2019-03-19T06:18:03.194Z,99.90
2019-03-19T06:20:32.712Z,99.90
2019-03-19T06:26:06.362Z,99.90
2019-03-19T06:28:36.304Z,99.90
2019-03-19T06:31:06.148Z,99.90
2019-03-19T06:33:36.260Z,99.90
2019-03-19T06:36:06.131Z,99.90
2019-03-19T06:38:35.957Z,99.90
2019-03-19T06:41:05.802Z,99.90
2019-03-19T06:43:35.842Z,99.90
2019-03-19T06:46:05.823Z,99.90
2019-03-19T06:48:35.668Z,99.90
2019-03-19T06:51:05.346Z,99.90
2019-03-19T06:53:34.998Z,99.90
2019-03-19T06:56:05.039Z,99.90
2019-03-19T06:58:35.101Z,99.90
2019-03-19T07:01:04.795Z,99.90
2019-03-19T07:03:34.705Z,99.90
2019-03-19T07:06:04.742Z,99.90
2019-03-19T07:08:34.205Z,99.90
2019-03-19T07:11:03.837Z,99.90
2019-03-19T07:13:34.172Z,99.90
2019-03-19T07:16:04.068Z,99.90
2019-03-19T07:18:34.025Z,99.90
2019-03-19T07:21:03.785Z,99.90
2019-03-19T07:23:33.482Z,99.90
2019-03-19T07:26:03.182Z,99.90
2019-03-19T07:28:32.814Z,99.90
2019-03-19T07:31:02.581Z,99.90
2019-03-19T07:33:32.107Z,99.90
2019-03-19T07:36:01.864Z,99.90
2019-03-19T07:38:33.507Z,99.90
2019-03-19T07:41:02.584Z,99.90
2019-03-19T07:43:32.190Z,99.90
2019-03-19T07:46:01.556Z,99.90
2019-03-19T07:48:31.142Z,99.90
2019-03-19T07:51:00.904Z,99.90
2019-03-19T07:53:30.238Z,99.90
2019-03-19T07:55:59.941Z,99.90
2019-03-19T07:58:40.620Z,99.90
2019-03-19T08:01:00.661Z,99.90
2019-03-19T08:03:30.595Z,99.90
2019-03-19T08:06:00.303Z,99.90
2019-03-19T08:08:30.181Z,99.90
2019-03-19T08:11:00.062Z,99.90
2019-03-19T08:13:29.503Z,99.90
2019-03-19T08:15:59.038Z,99.90
2019-03-19T08:18:28.675Z,99.90
2019-03-19T08:20:58.424Z,99.90
2019-03-19T08:23:28.132Z,99.90
2019-03-19T08:25:57.738Z,99.90
2019-03-19T08:28:30.211Z,99.90
2019-03-19T08:30:59.815Z,99.90
2019-03-19T08:33:29.462Z,99.90
2019-03-19T08:36:08.957Z,99.90
2019-03-19T08:38:30.991Z,99.90
2019-03-19T08:41:00.900Z,99.90
2019-03-19T08:43:30.900Z,99.90
2019-03-19T08:46:00.623Z,99.90
2019-03-19T08:48:30.059Z,99.90
2019-03-19T08:51:00.040Z,99.90
2019-03-19T08:53:29.648Z,99.90
2019-03-19T08:56:01.061Z,99.90
2019-03-19T08:58:30.297Z,99.90
2019-03-19T09:01:00.059Z,99.90
2019-03-19T09:03:29.579Z,99.90
2019-03-19T09:05:59.215Z,99.90
2019-03-19T09:08:28.719Z,99.90
2019-03-19T09:10:58.257Z,99.90
2019-03-19T09:13:27.777Z,99.90
2019-03-19T09:15:57.956Z,99.90
2019-03-19T09:18:27.358Z,99.90
2019-03-19T09:20:57.179Z,99.90
2019-03-19T09:23:26.937Z,99.90
2019-03-19T09:25:56.538Z,99.90
2019-03-19T09:28:26.459Z,99.90
2019-03-19T09:30:55.742Z,99.90
2019-03-19T09:33:25.619Z,99.90
2019-03-19T09:35:55.076Z,99.90
2019-03-19T09:38:24.714Z,99.90
2019-03-19T09:40:54.539Z,99.90
2019-03-19T09:43:24.236Z,99.90
2019-03-19T09:45:53.941Z,99.90
2019-03-19T09:48:23.578Z,99.90
2019-03-19T09:50:53.341Z,99.90
2019-03-19T09:53:22.848Z,99.90
2019-03-19T09:55:52.458Z,99.90
2019-03-19T09:58:21.962Z,99.90
2019-03-19T10:00:51.656Z,99.90
2019-03-19T10:03:21.298Z,99.90
2019-03-19T10:05:50.886Z,99.90
2019-03-19T10:08:20.698Z,99.90
2019-03-19T10:11:21.017Z,99.90
2019-03-19T10:13:50.456Z,99.90
2019-03-19T10:16:19.919Z,99.90
2019-03-19T10:18:49.620Z,99.90
2019-03-19T10:21:19.255Z,99.90
2019-03-19T10:23:49.498Z,99.90
2019-03-19T10:26:19.016Z,99.90
2019-03-19T10:28:48.462Z,99.90
2019-03-19T10:31:18.169Z,99.90
2019-03-19T10:33:47.775Z,99.90
2019-03-19T10:36:18.002Z,99.90
2019-03-19T10:38:47.604Z,99.90
2019-03-19T10:41:17.207Z,99.90
2019-03-19T10:43:46.715Z,99.90
2019-03-19T10:46:16.500Z,99.90
2019-03-19T10:48:46.232Z,99.90
2019-03-19T10:51:15.896Z,99.60
2019-03-19T10:53:45.897Z,96.20
2019-03-19T10:56:15.778Z,94.80
2019-03-19T10:58:45.536Z,95.70
2019-03-19T11:01:15.301Z,95.20
2019-03-19T11:03:45.056Z,95.30
2019-03-19T11:06:14.875Z,95.10
2019-03-19T11:08:44.695Z,96.40
2019-03-19T11:11:14.321Z,96.60
2019-03-19T11:13:43.825Z,94.30
2019-03-19T11:16:13.623Z,95.00
2019-03-19T11:18:43.243Z,93.20
2019-03-19T11:21:12.591Z,94.00
2019-03-19T11:23:42.149Z,95.20
2019-03-19T11:26:11.956Z,91.30
2019-03-19T11:28:41.707Z,92.50
2019-03-19T11:31:11.454Z,93.00
2019-03-19T11:33:41.095Z,91.70
2019-03-19T11:36:10.911Z,92.60
2019-03-19T11:38:40.494Z,90.20
2019-03-19T11:41:10.133Z,89.90
2019-03-19T11:43:39.899Z,88.50
2019-03-19T11:46:09.539Z,89.60
2019-03-19T11:48:39.295Z,90.70
2019-03-19T11:51:08.815Z,85.40
2019-03-19T11:53:38.270Z,89.80
2019-03-19T11:56:07.945Z,85.50
2019-03-19T11:58:37.615Z,82.10
2019-03-19T12:01:07.379Z,81.10
2019-03-19T12:03:36.976Z,84.40
2019-03-19T12:06:06.536Z,82.30
2019-03-19T12:08:36.283Z,84.30
2019-03-19T12:11:06.068Z,83.40
2019-03-19T12:13:35.332Z,84.90
2019-03-19T12:16:04.974Z,82.20
2019-03-19T12:18:34.401Z,77.70
2019-03-19T12:21:04.137Z,81.30
2019-03-19T12:23:34.125Z,81.30
2019-03-19T12:26:04.064Z,75.50
2019-03-19T12:28:39.600Z,75.60
2019-03-19T12:31:04.978Z,74.30
2019-03-19T12:33:40.973Z,72.80
2019-03-19T12:36:06.177Z,78.90
2019-03-19T12:38:36.416Z,80.40
2019-03-19T12:41:06.174Z,81.40
2019-03-19T12:43:35.992Z,81.80
2019-03-19T12:46:05.938Z,76.20
2019-03-19T12:48:35.817Z,78.50
2019-03-19T12:51:05.631Z,78.30
2019-03-19T12:53:35.541Z,73.10
2019-03-19T12:56:05.373Z,72.30
2019-03-19T12:58:35.574Z,74.00
2019-03-19T13:01:05.656Z,70.60
2019-03-19T13:03:35.453Z,74.60
2019-03-19T13:06:05.217Z,73.00
2019-03-19T13:08:34.919Z,71.60
2019-03-19T13:11:04.615Z,75.20
2019-03-19T13:13:34.252Z,72.20
2019-03-19T13:16:03.941Z,72.80
2019-03-19T13:18:33.650Z,72.00
2019-03-19T13:21:03.663Z,66.30
2019-03-19T13:23:33.529Z,66.70
2019-03-19T13:26:03.220Z,69.10
2019-03-19T13:28:33.188Z,68.70
2019-03-19T13:31:02.621Z,70.50
2019-03-19T13:33:32.267Z,69.60
2019-03-19T13:36:01.924Z,73.20
2019-03-19T13:38:31.789Z,72.10
2019-03-19T13:41:01.976Z,73.00
2019-03-19T13:43:31.934Z,70.00
2019-03-19T13:46:01.609Z,71.00
2019-03-19T13:48:31.492Z,74.00
2019-03-19T13:51:01.258Z,72.90
2019-03-19T13:53:31.132Z,75.10
2019-03-19T13:56:00.919Z,73.10
2019-03-19T13:58:30.651Z,70.50
2019-03-19T14:01:00.651Z,75.10
2019-03-19T14:03:30.538Z,74.70
2019-03-19T14:06:00.265Z,73.60
2019-03-19T14:08:30.657Z,76.40
2019-03-19T14:11:00.894Z,75.20
2019-03-19T14:13:30.774Z,77.90
2019-03-19T14:16:00.737Z,76.30
2019-03-19T14:18:30.771Z,75.40
2019-03-19T14:21:00.160Z,76.50
2019-03-19T14:23:29.757Z,77.30
2019-03-19T14:25:59.676Z,76.40
2019-03-19T14:28:29.688Z,78.40
2019-03-19T14:31:08.615Z,80.60
2019-03-19T14:33:31.731Z,78.10
2019-03-19T14:36:02.330Z,76.80
2019-03-19T14:38:32.806Z,75.00
2019-03-19T14:41:03.176Z,81.50
2019-03-19T14:43:32.993Z,82.70
2019-03-19T14:46:02.699Z,79.40
2019-03-19T14:48:32.733Z,84.50
2019-03-19T14:51:02.901Z,82.70
2019-03-19T14:53:32.810Z,81.90
2019-03-19T14:56:02.620Z,84.10
2019-03-19T14:58:32.155Z,82.40
2019-03-19T15:01:02.090Z,80.90
2019-03-19T15:03:32.088Z,84.20
2019-03-19T15:06:02.210Z,84.90
2019-03-19T15:08:31.886Z,88.60
2019-03-19T15:11:01.786Z,88.70
2019-03-19T15:13:31.301Z,90.20
2019-03-19T15:16:01.214Z,87.40
2019-03-19T15:18:30.772Z,85.60
2019-03-19T15:21:00.651Z,85.40
2019-03-19T15:23:30.286Z,86.90
2019-03-19T15:25:59.743Z,91.40
2019-03-19T15:28:29.326Z,87.70
2019-03-19T15:30:58.644Z,88.70
2019-03-19T15:33:28.373Z,89.10
2019-03-19T15:35:57.759Z,90.80
2019-03-19T15:38:27.565Z,86.10
2019-03-19T15:40:57.069Z,87.10
2019-03-19T15:43:26.775Z,90.60
2019-03-19T15:45:56.283Z,90.80
2019-03-19T15:48:25.785Z,91.30
2019-03-19T15:50:55.425Z,91.10
2019-03-19T15:53:25.128Z,91.90
2019-03-19T15:55:54.465Z,91.80
2019-03-19T15:58:24.410Z,91.10
2019-03-19T16:00:54.049Z,91.30
2019-03-19T16:03:23.626Z,91.80
2019-03-19T16:05:53.206Z,91.80
2019-03-19T16:08:22.635Z,92.60
2019-03-19T16:10:52.341Z,91.90
2019-03-19T16:13:22.126Z,90.20
2019-03-19T16:15:51.558Z,91.10
2019-03-19T16:18:20.954Z,90.90
2019-03-19T16:20:50.927Z,92.00
2019-03-19T16:23:20.785Z,91.30
2019-03-19T16:25:50.565Z,92.10
2019-03-19T16:28:19.995Z,91.80
2019-03-19T16:30:49.848Z,93.00
2019-03-19T16:33:19.607Z,92.30
2019-03-19T16:35:49.323Z,93.00
2019-03-19T16:38:18.883Z,93.10
2019-03-19T16:40:48.523Z,92.80
2019-03-19T16:43:18.243Z,93.50
2019-03-19T16:45:47.926Z,93.60
2019-03-19T16:48:17.762Z,94.60
2019-03-19T16:50:47.444Z,94.20
2019-03-19T16:53:17.179Z,94.00
2019-03-19T16:55:46.890Z,95.20
2019-03-19T16:58:17.082Z,96.00
2019-03-19T17:00:46.541Z,96.80
2019-03-19T17:03:16.180Z,97.10
2019-03-19T17:05:45.827Z,96.60
2019-03-19T17:08:15.742Z,96.30
2019-03-19T17:10:45.405Z,97.30
2019-03-19T17:13:15.770Z,97.90
2019-03-19T17:15:45.462Z,98.10
2019-03-19T17:18:15.290Z,98.20
2019-03-19T17:20:45.172Z,97.90
2019-03-19T17:23:14.710Z,98.40
2019-03-19T17:25:44.578Z,99.20
2019-03-19T17:28:22.129Z,99.60
2019-03-19T17:30:45.377Z,99.60
2019-03-19T17:33:17.690Z,99.90
2019-03-19T17:35:47.369Z,99.90
2019-03-19T17:38:17.054Z,99.90
2019-03-19T17:40:46.856Z,99.90
2019-03-19T17:43:16.543Z,99.90
2019-03-19T17:45:46.193Z,99.90
2019-03-19T17:48:16.587Z,99.90
2019-03-19T17:50:47.644Z,99.90
2019-03-19T17:53:17.760Z,99.90
2019-03-19T17:55:47.396Z,99.90
2019-03-19T17:58:16.921Z,99.90
2019-03-19T18:00:48.164Z,99.90
2019-03-19T18:03:17.860Z,99.90
2019-03-19T18:05:47.427Z,99.90
2019-03-19T18:08:16.831Z,99.90
2019-03-19T18:10:46.602Z,99.90
2019-03-19T18:13:15.939Z,99.90
2019-03-19T18:15:46.007Z,99.90
2019-03-19T18:18:15.766Z,99.90
2019-03-19T18:20:45.401Z,99.90
2019-03-19T18:23:15.090Z,99.90
2019-03-19T18:25:44.922Z,99.90
2019-03-19T18:28:14.695Z,99.90
2019-03-19T18:30:44.440Z,99.90
2019-03-19T18:33:13.915Z,99.90
2019-03-19T18:35:43.658Z,99.90
2019-03-19T18:38:13.239Z,99.90
2019-03-19T18:40:43.007Z,99.90
2019-03-19T18:43:12.550Z,99.90
2019-03-19T18:45:42.155Z,99.90
2019-03-19T18:48:11.930Z,99.90
2019-03-19T18:50:41.670Z,99.90
2019-03-19T18:53:11.793Z,99.90
2019-03-19T18:55:41.560Z,99.90
2019-03-19T18:58:11.451Z,99.90
2019-03-19T19:00:41.637Z,99.90
2019-03-19T19:03:11.450Z,99.90
2019-03-19T19:05:41.449Z,99.90
2019-03-19T19:08:11.326Z,99.90
2019-03-19T19:10:41.084Z,99.90
2019-03-19T19:13:10.965Z,99.90
2019-03-19T19:15:40.805Z,99.90
2019-03-19T19:18:10.657Z,99.90
2019-03-19T19:20:40.612Z,99.90
2019-03-19T19:23:10.371Z,99.90
2019-03-19T19:25:40.122Z,99.90
2019-03-19T19:28:09.583Z,99.90
2019-03-19T19:30:39.582Z,99.90
2019-03-19T19:33:09.581Z,99.90
2019-03-19T19:35:39.525Z,99.90
2019-03-19T19:38:09.333Z,99.90
2019-03-19T19:40:39.168Z,99.90
2019-03-19T19:43:08.946Z,99.90
2019-03-19T19:45:38.236Z,99.90
2019-03-19T19:48:08.326Z,99.90
2019-03-19T19:50:38.255Z,99.90
2019-03-19T19:53:07.881Z,99.90
2019-03-19T19:55:37.686Z,99.90
2019-03-19T19:58:07.689Z,99.90
2019-03-19T20:00:37.207Z,99.90
2019-03-19T20:03:12.152Z,99.90
2019-03-19T20:05:38.810Z,99.90
2019-03-19T20:08:09.052Z,99.90
2019-03-19T20:10:39.158Z,99.90
2019-03-19T20:13:09.289Z,99.90
2019-03-19T20:15:38.822Z,99.90
2019-03-19T20:18:08.562Z,99.90
2019-03-19T20:20:38.316Z,99.90
2019-03-19T20:23:08.138Z,99.90
2019-03-19T20:25:38.930Z,99.90
2019-03-19T20:28:08.800Z,99.90
2019-03-19T20:30:38.569Z,99.90
2019-03-19T20:33:08.419Z,99.90
2019-03-19T20:35:38.126Z,99.90
2019-03-19T20:38:08.575Z,99.90
2019-03-19T20:40:38.699Z,99.90
2019-03-19T20:43:08.742Z,99.90
2019-03-19T20:45:38.396Z,99.90
2019-03-19T20:48:08.126Z,99.90
2019-03-19T20:50:37.964Z,99.90
2019-03-19T20:53:07.845Z,99.90
2019-03-19T20:55:37.841Z,99.90
2019-03-19T20:58:07.722Z,99.90
2019-03-19T21:00:37.366Z,99.90
2019-03-19T21:03:07.250Z,99.90
2019-03-19T21:05:37.400Z,99.90
2019-03-19T21:08:07.237Z,99.90
2019-03-19T21:10:36.877Z,99.90
2019-03-19T21:13:07.235Z,99.90
2019-03-19T21:15:36.996Z,99.90
2019-03-19T21:18:06.862Z,99.90
2019-03-19T21:20:36.874Z,99.90
2019-03-19T21:23:06.584Z,99.90
2019-03-19T21:25:36.879Z,99.90
2019-03-19T21:28:14.150Z,99.90
2019-03-19T21:30:38.172Z,99.90
2019-03-19T21:33:08.082Z,99.90
2019-03-19T21:35:37.576Z,99.90
2019-03-19T21:38:07.183Z,99.90
2019-03-19T21:40:37.012Z,99.90
2019-03-19T21:43:07.005Z,99.90
2019-03-19T21:45:36.625Z,99.90
2019-03-19T21:48:06.119Z,99.90
2019-03-19T21:50:36.238Z,99.90
2019-03-19T21:53:06.152Z,99.90
2019-03-19T21:55:35.859Z,99.90
2019-03-19T21:58:05.686Z,99.90
2019-03-19T22:00:35.377Z,99.90
2019-03-19T22:03:05.441Z,99.90
2019-03-19T22:05:34.986Z,99.90
2019-03-19T22:08:04.658Z,99.90
2019-03-19T22:10:34.603Z,99.90
2019-03-19T22:13:04.123Z,99.90
2019-03-19T22:15:34.016Z,99.90
2019-03-19T22:18:03.860Z,99.90
2019-03-19T22:20:33.396Z,99.90
2019-03-19T22:23:03.042Z,99.90
2019-03-19T22:25:33.036Z,99.90
2019-03-19T22:28:03.039Z,99.90
2019-03-19T22:30:33.052Z,99.90
2019-03-19T22:33:02.943Z,99.90
2019-03-19T22:35:32.493Z,99.90
2019-03-19T22:38:02.083Z,99.90
2019-03-19T22:40:31.963Z,99.90
2019-03-19T22:43:01.595Z,99.90
2019-03-19T22:45:31.355Z,99.90
2019-03-19T22:48:01.127Z,99.90
2019-03-19T22:50:30.645Z,99.90
2019-03-19T22:53:00.097Z,99.90
2019-03-19T22:55:29.938Z,99.90
2019-03-19T22:57:59.797Z,99.90
2019-03-19T23:00:43.329Z,99.90
2019-03-19T23:03:13.115Z,99.90
2019-03-19T23:05:42.874Z,99.90
2019-03-19T23:08:12.400Z,99.90
2019-03-19T23:10:41.857Z,99.90
2019-03-19T23:13:12.038Z,99.90
2019-03-19T23:15:42.529Z,99.90
2019-03-19T23:18:12.288Z,99.90
2019-03-19T23:20:42.031Z,99.90
2019-03-19T23:23:12.236Z,99.90
2019-03-19T23:25:42.036Z,99.90
2019-03-19T23:28:11.958Z,99.90
2019-03-19T23:30:41.552Z,99.90
2019-03-19T23:33:11.569Z,99.90
2019-03-19T23:35:41.321Z,99.90
2019-03-19T23:38:11.078Z,99.90
2019-03-19T23:40:41.016Z,99.90
2019-03-19T23:43:10.713Z,99.90
2019-03-19T23:45:40.639Z,99.90
2019-03-19T23:48:10.464Z,99.90
2019-03-19T23:50:40.361Z,99.90
2019-03-19T23:53:09.942Z,99.90
2019-03-19T23:55:39.753Z,99.90
2019-03-19T23:58:09.910Z,99.90
